createdAt,value
2019-03-04T00:01:39.909Z,99711.56
2019-03-04T00:04:09.439Z,99707.30
2019-03-04T00:06:38.851Z,99705.71
2019-03-04T00:09:09.855Z,99707.37
2019-03-04T00:11:39.367Z,99703.20
2019-03-04T00:14:09.311Z,99700.47
2019-03-04T00:16:38.845Z,99705.77
2019-03-04T00:19:08.364Z,99703.08
2019-03-04T00:21:37.870Z,99690.95
2019-03-04T00:24:07.369Z,99697.61
2019-03-04T00:26:36.763Z,99694.70
2019-03-04T00:29:06.345Z,99696.14
2019-03-04T00:31:35.990Z,99694.99
2019-03-04T00:34:05.393Z,99689.70
2019-03-04T00:36:34.795Z,99689.13
2019-03-04T00:39:05.925Z,99691.41
2019-03-04T00:41:35.721Z,99683.53
2019-03-04T00:44:05.178Z,99682.33
2019-03-04T00:46:35.166Z,99682.06
2019-03-04T00:49:04.569Z,99685.87
2019-03-04T00:51:33.982Z,99686.14
2019-03-04T00:54:03.522Z,99677.44
2019-03-04T00:56:32.996Z,99688.30
2019-03-04T00:59:02.430Z,99675.33
2019-03-04T01:01:31.879Z,99676.69
2019-03-04T01:04:01.373Z,99672.87
2019-03-04T01:06:30.878Z,99677.66
2019-03-04T01:09:00.343Z,99681.72
2019-03-04T01:11:29.743Z,99674.92
2019-03-04T01:13:59.236Z,99673.45
2019-03-04T01:16:28.778Z,99672.20
2019-03-04T01:18:58.164Z,99670.72
2019-03-04T01:21:27.561Z,99661.83
2019-03-04T01:23:57.682Z,99662.49
2019-03-04T01:26:27.086Z,99669.57
2019-03-04T01:28:56.612Z,99663.47
2019-03-04T01:31:26.144Z,99665.71
2019-03-04T01:33:55.555Z,99664.98
2019-03-04T01:36:24.969Z,99661.95
2019-03-04T01:38:54.701Z,99659.72
2019-03-04T01:41:24.190Z,99668.13
2019-03-04T01:43:53.676Z,99661.58
2019-03-04T01:46:23.129Z,99663.34
2019-03-04T01:48:52.625Z,99664.36
2019-03-04T01:51:22.111Z,99663.25
2019-03-04T01:53:51.548Z,99659.19
2019-03-04T01:56:20.953Z,99654.67
2019-03-04T01:58:50.430Z,99655.73
2019-03-04T02:01:19.983Z,99655.64
2019-03-04T02:03:49.368Z,99656.25
2019-03-04T02:06:18.850Z,99662.42
2019-03-04T02:08:48.304Z,99662.56
2019-03-04T02:11:17.701Z,99665.07
2019-03-04T02:13:47.193Z,99661.25
2019-03-04T02:16:16.773Z,99660.29
2019-03-04T02:18:46.190Z,99659.04
2019-03-04T02:21:15.598Z,99660.39
2019-03-04T02:23:45.145Z,99664.10
2019-03-04T02:26:21.879Z,99669.38
2019-03-04T02:28:51.386Z,99664.00
2019-03-04T02:31:20.799Z,99667.34
2019-03-04T02:33:50.294Z,99660.59
2019-03-04T02:36:20.333Z,99662.93
2019-03-04T02:38:49.729Z,99660.63
2019-03-04T02:41:19.119Z,99658.02
2019-03-04T02:43:48.668Z,99652.47
2019-03-04T02:46:18.093Z,99660.23
2019-03-04T02:48:47.605Z,99664.56
2019-03-04T02:51:17.163Z,99663.34
2019-03-04T02:53:47.059Z,99657.98
2019-03-04T02:56:16.478Z,99659.97
2019-03-04T02:58:46.034Z,99657.40
2019-03-04T03:01:15.818Z,99654.74
2019-03-04T03:03:45.234Z,99655.23
2019-03-04T03:06:14.678Z,99665.37
2019-03-04T03:08:44.183Z,99657.94
2019-03-04T03:11:13.689Z,99655.64
2019-03-04T03:13:43.138Z,99654.46
2019-03-04T03:16:12.550Z,99664.91
2019-03-04T03:18:42.036Z,99661.66
2019-03-04T03:21:11.710Z,99665.75
2019-03-04T03:23:41.111Z,99660.69
2019-03-04T03:26:10.617Z,99670.29
2019-03-04T03:28:40.069Z,99669.68
2019-03-04T03:31:09.474Z,99670.38
2019-03-04T03:33:38.979Z,99680.41
2019-03-04T03:36:08.528Z,99673.02
2019-03-04T03:38:37.931Z,99668.25
2019-03-04T03:41:07.725Z,99667.63
2019-03-04T03:43:37.364Z,99669.09
2019-03-04T03:46:07.472Z,99672.06
2019-03-04T03:48:36.866Z,99673.86
2019-03-04T03:51:06.563Z,99682.55
2019-03-04T03:53:36.054Z,99678.67
2019-03-04T03:56:05.774Z,99680.72
2019-03-04T03:58:35.488Z,99681.77
2019-03-04T04:01:04.926Z,99677.14
2019-03-04T04:03:34.411Z,99688.22
2019-03-04T04:06:04.075Z,99688.59
2019-03-04T04:08:33.497Z,99699.77
2019-03-04T04:11:02.891Z,99697.31
2019-03-04T04:13:32.632Z,99688.33
2019-03-04T04:16:02.121Z,99684.28
2019-03-04T04:18:31.518Z,99689.50
2019-03-04T04:21:01.019Z,99689.91
2019-03-04T04:23:30.516Z,99688.64
2019-03-04T04:26:00.020Z,99693.14
2019-03-04T04:28:30.945Z,99686.11
2019-03-04T04:31:00.338Z,99674.33
2019-03-04T04:33:29.827Z,99674.75
2019-03-04T04:35:59.394Z,99678.42
2019-03-04T04:38:28.799Z,99676.39
2019-03-04T04:40:58.215Z,99671.28
2019-03-04T04:43:27.881Z,99667.34
2019-03-04T04:45:57.465Z,99666.96
2019-03-04T04:48:27.035Z,99660.23
2019-03-04T04:50:56.592Z,99662.33
2019-03-04T04:53:26.017Z,99659.27
2019-03-04T04:55:55.439Z,99662.50
2019-03-04T04:58:25.007Z,99656.22
2019-03-04T05:00:54.517Z,99671.89
2019-03-04T05:03:23.907Z,99659.06
2019-03-04T05:05:53.395Z,99662.17
2019-03-04T05:08:22.909Z,99663.38
2019-03-04T05:10:52.420Z,99660.08
2019-03-04T05:13:21.890Z,99661.45
2019-03-04T05:15:51.316Z,99652.93
2019-03-04T05:18:20.822Z,99656.39
2019-03-04T05:20:50.377Z,99652.04
2019-03-04T05:23:19.830Z,99653.84
2019-03-04T05:25:49.373Z,99650.83
2019-03-04T05:28:18.826Z,99645.52
2019-03-04T05:30:48.239Z,99649.81
2019-03-04T05:33:17.758Z,99642.66
2019-03-04T05:35:47.388Z,99642.22
2019-03-04T05:38:16.769Z,99642.50
2019-03-04T05:40:46.190Z,99654.12
2019-03-04T05:43:15.903Z,99652.79
2019-03-04T05:45:45.532Z,99645.65
2019-03-04T05:48:14.988Z,99654.80
2019-03-04T05:50:44.880Z,99651.11
2019-03-04T05:53:14.407Z,99660.78
2019-03-04T05:55:43.970Z,99663.80
2019-03-04T05:58:13.445Z,99662.52
2019-03-04T06:00:43.550Z,99659.03
2019-03-04T06:03:13.774Z,99657.66
2019-03-04T06:05:43.230Z,99659.31
2019-03-04T06:08:12.813Z,99663.84
2019-03-04T06:10:42.305Z,99669.93
2019-03-04T06:13:11.762Z,99670.16
2019-03-04T06:15:41.200Z,99678.00
2019-03-04T06:18:10.747Z,99676.39
2019-03-04T06:20:40.432Z,99679.17
2019-03-04T06:23:09.847Z,99677.28
2019-03-04T06:25:39.277Z,99682.80
2019-03-04T06:28:08.982Z,99689.52
2019-03-04T06:30:38.514Z,99681.39
2019-03-04T06:33:08.009Z,99683.30
2019-03-04T06:35:37.643Z,99689.28
2019-03-04T06:38:07.146Z,99692.91
2019-03-04T06:40:36.837Z,99699.08
2019-03-04T06:43:06.463Z,99694.07
2019-03-04T06:45:36.089Z,99693.43
2019-03-04T06:48:05.543Z,99695.38
2019-03-04T06:50:54.736Z,99697.69
2019-03-04T06:53:37.600Z,99695.67
2019-03-04T06:56:30.053Z,99706.38
2019-03-04T06:59:13.251Z,99703.02
2019-03-04T07:01:47.120Z,99704.19
2019-03-04T07:04:28.139Z,99701.63
2019-03-04T07:06:57.716Z,99708.12
2019-03-04T07:09:27.137Z,99708.97
2019-03-04T07:11:56.567Z,99708.03
2019-03-04T07:14:26.139Z,99696.85
2019-03-04T07:16:55.640Z,99703.14
2019-03-04T07:19:30.128Z,99705.42
2019-03-04T07:21:59.586Z,99702.83
2019-03-04T07:24:29.136Z,99697.51
2019-03-04T07:26:58.577Z,99705.41
2019-03-04T07:29:28.169Z,99694.16
2019-03-04T07:31:57.752Z,99690.19
2019-03-04T07:34:27.328Z,99693.27
2019-03-04T07:36:56.743Z,99690.66
2019-03-04T07:39:26.275Z,99684.97
2019-03-04T07:41:57.459Z,99688.89
2019-03-04T07:44:26.888Z,99683.28
2019-03-04T07:46:56.326Z,99680.24
2019-03-04T07:49:26.247Z,99682.80
2019-03-04T07:51:55.767Z,99676.24
2019-03-04T07:54:25.197Z,99673.05
2019-03-04T07:56:54.860Z,99673.18
2019-03-04T07:59:24.468Z,99671.61
2019-03-04T08:01:54.002Z,99665.87
2019-03-04T08:04:23.477Z,99668.72
2019-03-04T08:07:05.271Z,99665.08
2019-03-04T08:10:09.700Z,99668.66
2019-03-04T08:13:16.172Z,99666.55
2019-03-04T08:15:48.633Z,99666.42
2019-03-04T08:18:18.189Z,99667.36
2019-03-04T08:20:47.717Z,99660.40
2019-03-04T08:23:17.395Z,99663.61
2019-03-04T08:25:46.862Z,99657.45
2019-03-04T08:28:16.724Z,99659.53
2019-03-04T08:30:46.188Z,99655.92
2019-03-04T08:33:15.616Z,99652.26
2019-03-04T08:35:45.147Z,99648.47
2019-03-04T08:38:14.930Z,99645.75
2019-03-04T08:40:44.445Z,99638.55
2019-03-04T08:43:13.902Z,99640.95
2019-03-04T08:45:43.539Z,99631.13
2019-03-04T08:48:13.103Z,99631.83
2019-03-04T08:50:42.609Z,99632.67
2019-03-04T08:53:12.148Z,99631.90
2019-03-04T08:55:41.547Z,99630.80
2019-03-04T08:58:11.251Z,99621.08
2019-03-04T09:00:41.110Z,99617.44
2019-03-04T09:03:10.620Z,99613.55
2019-03-04T09:05:40.033Z,99613.25
2019-03-04T09:08:09.540Z,99608.33
2019-03-04T09:10:39.080Z,99608.72
2019-03-04T09:13:08.531Z,99621.31
2019-03-04T09:15:38.041Z,99611.30
2019-03-04T09:18:07.443Z,99607.50
2019-03-04T09:20:37.061Z,99604.55
2019-03-04T09:23:07.308Z,99596.22
2019-03-04T09:25:42.663Z,99598.61
2019-03-04T09:28:12.116Z,99589.58
2019-03-04T09:30:41.610Z,99594.86
2019-03-04T09:33:11.153Z,99582.48
2019-03-04T09:35:40.816Z,99581.94
2019-03-04T09:38:10.221Z,99584.97
2019-03-04T09:40:39.817Z,99580.05
2019-03-04T09:43:09.666Z,99573.64
2019-03-04T09:45:39.537Z,99563.22
2019-03-04T09:48:09.196Z,99559.75
2019-03-04T09:50:39.500Z,99565.52
2019-03-04T09:53:39.942Z,99556.91
2019-03-04T09:56:06.293Z,99549.56
2019-03-04T09:58:36.108Z,99544.77
2019-03-04T10:01:22.267Z,99543.06
2019-03-04T10:04:14.878Z,99539.75
2019-03-04T10:07:07.156Z,99527.98
2019-03-04T10:10:26.886Z,99522.05
2019-03-04T10:13:25.235Z,99510.27
2019-03-04T10:16:08.200Z,99510.19
2019-03-04T10:19:29.830Z,99502.17
2019-03-04T10:22:43.543Z,99497.84
2019-03-04T10:25:44.336Z,99486.83
2019-03-04T10:28:53.078Z,99485.43
2019-03-04T10:31:47.592Z,99476.98
2019-03-04T10:35:00.569Z,99472.26
2019-03-04T10:38:11.408Z,99470.70
2019-03-04T10:41:31.028Z,99464.80
2019-03-04T10:44:42.810Z,99446.73
2019-03-04T10:47:12.468Z,99444.46
2019-03-04T10:49:41.974Z,99441.59
2019-03-04T10:52:11.587Z,99431.97
2019-03-04T10:54:41.173Z,99431.13
2019-03-04T10:57:10.644Z,99425.09
2019-03-04T10:59:40.698Z,99421.51
2019-03-04T11:02:10.201Z,99413.64
2019-03-04T11:04:40.038Z,99409.39
2019-03-04T11:07:09.539Z,99404.66
2019-03-04T11:09:39.028Z,99395.12
2019-03-04T11:12:09.132Z,99397.67
2019-03-04T11:14:38.747Z,99394.45
2019-03-04T11:17:08.192Z,99376.18
2019-03-04T11:19:37.692Z,99373.03
2019-03-04T11:22:07.567Z,99376.04
2019-03-04T11:24:38.178Z,99363.27
2019-03-04T11:27:07.898Z,99359.09
2019-03-04T11:29:37.768Z,99354.97
2019-03-04T11:32:08.153Z,99352.55
2019-03-04T11:34:37.630Z,99346.58
2019-03-04T11:37:07.222Z,99344.04
2019-03-04T11:40:04.576Z,99333.23
2019-03-04T11:42:34.237Z,99324.91
2019-03-04T11:45:04.080Z,99309.08
2019-03-04T11:47:33.633Z,99309.17
2019-03-04T11:50:03.096Z,99304.73
2019-03-04T11:52:32.507Z,99305.50
2019-03-04T11:55:02.063Z,99294.20
2019-03-04T11:57:31.908Z,99290.33
2019-03-04T12:00:01.327Z,99290.33
2019-03-04T12:02:39.000Z,99285.95
2019-03-04T12:05:03.536Z,99280.08
2019-03-04T12:07:33.122Z,99274.28
2019-03-04T12:10:02.525Z,99266.97
2019-03-04T12:12:32.294Z,99262.55
2019-03-04T12:15:02.147Z,99262.38
2019-03-04T12:17:31.638Z,99254.20
2019-03-04T12:20:01.297Z,99250.78
2019-03-04T12:22:30.918Z,99246.93
2019-03-04T12:25:00.409Z,99242.08
2019-03-04T12:27:29.963Z,99237.36
2019-03-04T12:29:59.476Z,99233.07
2019-03-04T12:32:36.083Z,99228.59
2019-03-04T12:35:08.862Z,99225.14
2019-03-04T12:37:38.260Z,99220.95
2019-03-04T12:40:09.676Z,99217.93
2019-03-04T12:42:39.152Z,99213.12
2019-03-04T12:45:10.591Z,99211.92
2019-03-04T12:47:40.129Z,99205.39
2019-03-04T12:50:13.133Z,99202.85
2019-03-04T12:52:42.650Z,99197.92
2019-03-04T12:55:12.748Z,99191.03
2019-03-04T12:57:43.609Z,99182.33
2019-03-04T13:00:16.356Z,99179.22
2019-03-04T13:02:45.945Z,99169.91
2019-03-04T13:05:15.662Z,99162.89
2019-03-04T13:07:45.393Z,99165.43
2019-03-04T13:10:15.706Z,99154.54
2019-03-04T13:12:46.132Z,99151.53
2019-03-04T13:15:18.101Z,99155.53
2019-03-04T13:17:49.770Z,99154.41
2019-03-04T13:20:19.486Z,99147.55
2019-03-04T13:22:54.768Z,99147.53
2019-03-04T13:25:24.704Z,99139.55
2019-03-04T13:27:54.719Z,99137.88
2019-03-04T13:30:24.761Z,99130.14
2019-03-04T13:32:54.228Z,99132.92
2019-03-04T13:35:25.033Z,99134.50
2019-03-04T13:37:54.738Z,99125.91
2019-03-04T13:40:24.234Z,99122.64
2019-03-04T13:42:53.863Z,99120.93
2019-03-04T13:45:23.943Z,99113.66
2019-03-04T13:47:53.661Z,99110.64
2019-03-04T13:50:24.454Z,99113.43
2019-03-04T13:52:54.564Z,99105.95
2019-03-04T13:55:24.124Z,99111.00
2019-03-04T13:57:53.620Z,99100.94
2019-03-04T14:00:23.350Z,99103.38
2019-03-04T14:02:52.935Z,99094.25
2019-03-04T14:05:22.551Z,99089.03
2019-03-04T14:07:52.238Z,99083.25
2019-03-04T14:10:21.905Z,99084.84
2019-03-04T14:12:51.409Z,99087.73
2019-03-04T14:15:26.989Z,99081.81
2019-03-04T14:17:56.627Z,99086.17
2019-03-04T14:20:27.340Z,99079.90
2019-03-04T14:22:57.986Z,99076.00
2019-03-04T14:25:27.679Z,99071.91
2019-03-04T14:27:58.024Z,99067.66
2019-03-04T14:30:27.604Z,99065.71
2019-03-04T14:32:57.094Z,99066.00
2019-03-04T14:35:26.595Z,99065.52
2019-03-04T14:37:56.355Z,99065.61
2019-03-04T14:40:28.303Z,99066.55
2019-03-04T14:42:58.335Z,99062.36
2019-03-04T14:45:27.951Z,99063.92
2019-03-04T14:47:57.575Z,99061.84
2019-03-04T14:50:28.519Z,99061.88
2019-03-04T14:52:58.230Z,99060.42
2019-03-04T14:55:27.747Z,99056.78
2019-03-04T14:57:57.305Z,99060.55
2019-03-04T15:00:33.697Z,99053.05
2019-03-04T15:03:03.414Z,99053.17
2019-03-04T15:05:32.923Z,99052.59
2019-03-04T15:08:02.409Z,99050.64
2019-03-04T15:10:32.022Z,99049.44
2019-03-04T15:13:01.451Z,99048.08
2019-03-04T15:15:32.721Z,99042.63
2019-03-04T15:18:02.363Z,99039.41
2019-03-04T15:20:33.613Z,99040.12
2019-03-04T15:23:03.116Z,99043.77
2019-03-04T15:25:32.809Z,99032.73
2019-03-04T15:28:21.621Z,99033.96
2019-03-04T15:30:53.704Z,99034.20
2019-03-04T15:33:23.161Z,99025.61
2019-03-04T15:35:52.772Z,99026.70
2019-03-04T15:38:23.984Z,99023.22
2019-03-04T15:40:54.115Z,99024.08
2019-03-04T15:43:24.152Z,99024.30
2019-03-04T15:45:54.380Z,99023.73
2019-03-04T15:48:25.145Z,99019.61
2019-03-04T15:50:55.876Z,99021.07
2019-03-04T15:53:25.594Z,99015.50
2019-03-04T15:55:55.237Z,99019.48
2019-03-04T15:58:24.778Z,99017.30
2019-03-04T16:00:54.613Z,99020.69
2019-03-04T16:03:25.641Z,99021.88
2019-03-04T16:05:55.090Z,99015.70
2019-03-04T16:08:24.539Z,99019.45
2019-03-04T16:10:54.263Z,99011.22
2019-03-04T16:13:23.748Z,99012.80
2019-03-04T16:15:53.212Z,99006.61
2019-03-04T16:18:22.812Z,99003.11
2019-03-04T16:20:52.222Z,99008.31
2019-03-04T16:23:21.711Z,99008.38
2019-03-04T16:25:51.177Z,99016.09
2019-03-04T16:28:23.541Z,99013.20
2019-03-04T16:30:53.085Z,99016.06
2019-03-04T16:33:28.630Z,99022.91
2019-03-04T16:35:58.221Z,99023.11
2019-03-04T16:38:27.707Z,99026.85
2019-03-04T16:40:57.124Z,99029.27
2019-03-04T16:43:26.703Z,99031.50
2019-03-04T16:45:56.219Z,99029.39
2019-03-04T16:48:26.115Z,99032.07
2019-03-04T16:50:55.817Z,99033.52
2019-03-04T16:53:25.469Z,99032.07
2019-03-04T16:55:54.988Z,99030.25
2019-03-04T16:58:24.472Z,99029.52
2019-03-04T17:00:54.078Z,99040.67
2019-03-04T17:03:23.815Z,99039.05
2019-03-04T17:05:53.433Z,99035.72
2019-03-04T17:08:22.886Z,99043.70
2019-03-04T17:10:52.405Z,99048.05
2019-03-04T17:13:22.004Z,99039.25
2019-03-04T17:15:51.516Z,99046.13
2019-03-04T17:18:20.962Z,99040.91
2019-03-04T17:20:50.674Z,99045.27
2019-03-04T17:23:20.282Z,99043.14
2019-03-04T17:25:49.686Z,99036.27
2019-03-04T17:28:19.568Z,99034.53
2019-03-04T17:30:49.185Z,99036.34
2019-03-04T17:33:18.798Z,99036.41
2019-03-04T17:35:48.281Z,99043.30
2019-03-04T17:38:17.711Z,99039.25
2019-03-04T17:40:47.221Z,99036.60
2019-03-04T17:43:16.966Z,99041.48
2019-03-04T17:45:46.446Z,99041.30
2019-03-04T17:48:16.058Z,99037.40
2019-03-04T17:50:46.707Z,99032.87
2019-03-04T17:53:16.263Z,99034.89
2019-03-04T17:55:45.659Z,99035.61
2019-03-04T17:58:17.340Z,99045.85
2019-03-04T18:00:52.186Z,99039.63
2019-03-04T18:03:21.711Z,99041.85
2019-03-04T18:05:51.454Z,99041.88
2019-03-04T18:08:20.880Z,99040.78
2019-03-04T18:10:50.446Z,99045.24
2019-03-04T18:13:19.951Z,99047.52
2019-03-04T18:15:49.457Z,99046.67
2019-03-04T18:18:19.163Z,99059.73
2019-03-04T18:20:48.634Z,99062.31
2019-03-04T18:23:18.152Z,99057.97
2019-03-04T18:25:51.202Z,99060.44
2019-03-04T18:28:41.217Z,99059.78
2019-03-04T18:31:32.421Z,99058.84
2019-03-04T18:34:31.253Z,99064.41
2019-03-04T18:37:40.552Z,99067.50
2019-03-04T18:40:25.966Z,99067.33
2019-03-04T18:43:21.324Z,99079.98
2019-03-04T18:46:27.808Z,99079.31
2019-03-04T18:49:01.604Z,99076.48
2019-03-04T18:51:36.194Z,99074.86
2019-03-04T18:54:11.650Z,99079.09
2019-03-04T18:56:43.661Z,99073.91
2019-03-04T18:59:13.249Z,99075.61
2019-03-04T19:01:42.876Z,99080.59
2019-03-04T19:04:12.452Z,99078.20
2019-03-04T19:06:41.982Z,99079.65
2019-03-04T19:09:11.837Z,99073.62
2019-03-04T19:11:41.486Z,99075.10
2019-03-04T19:14:11.370Z,99080.83
2019-03-04T19:16:41.170Z,99079.03
2019-03-04T19:19:10.590Z,99081.20
2019-03-04T19:21:40.017Z,99089.78
2019-03-04T19:24:09.759Z,99081.08
2019-03-04T19:26:39.374Z,99080.83
2019-03-04T19:29:10.819Z,99082.52
2019-03-04T19:31:39.936Z,99080.92
2019-03-04T19:34:09.468Z,99079.22
2019-03-04T19:36:38.987Z,99076.36
2019-03-04T19:39:09.271Z,99083.71
2019-03-04T19:41:38.879Z,99087.35
2019-03-04T19:44:08.292Z,99088.59
2019-03-04T19:46:37.873Z,99093.17
2019-03-04T19:49:07.457Z,99085.06
2019-03-04T19:51:36.972Z,99083.93
2019-03-04T19:54:06.413Z,99085.78
2019-03-04T19:56:35.868Z,99088.93
2019-03-04T19:59:05.714Z,99092.91
2019-03-04T20:01:35.403Z,99102.73
2019-03-04T20:04:04.803Z,99099.22
2019-03-04T20:06:34.239Z,99095.27
2019-03-04T20:09:05.819Z,99097.78
2019-03-04T20:11:35.398Z,99101.46
2019-03-04T20:14:04.787Z,99096.61
2019-03-04T20:16:34.269Z,99095.19
2019-03-04T20:19:03.755Z,99101.31
2019-03-04T20:21:33.242Z,99103.35
2019-03-04T20:24:02.778Z,99098.47
2019-03-04T20:26:32.198Z,99094.61
2019-03-04T20:29:01.704Z,99095.45
2019-03-04T20:31:31.316Z,99094.52
2019-03-04T20:34:00.741Z,99092.06
2019-03-04T20:36:32.455Z,99103.73
2019-03-04T20:39:02.154Z,99097.31
2019-03-04T20:41:32.099Z,99102.19
2019-03-04T20:44:01.587Z,99102.09
2019-03-04T20:46:31.207Z,99101.15
2019-03-04T20:49:00.708Z,99102.16
2019-03-04T20:51:30.180Z,99097.96
2019-03-04T20:53:59.840Z,99091.41
2019-03-04T20:56:29.265Z,99100.80
2019-03-04T20:58:58.858Z,99099.44
2019-03-04T21:01:28.603Z,99097.11
2019-03-04T21:03:58.217Z,99091.55
2019-03-04T21:06:27.793Z,99100.80
2019-03-04T21:08:57.239Z,99102.97
2019-03-04T21:11:26.660Z,99090.43
2019-03-04T21:13:56.155Z,99092.41
2019-03-04T21:16:25.833Z,99080.88
2019-03-04T21:18:55.361Z,99093.23
2019-03-04T21:21:24.786Z,99098.02
2019-03-04T21:23:54.322Z,99091.81
2019-03-04T21:26:26.570Z,99085.55
2019-03-04T21:29:29.939Z,99090.16
2019-03-04T21:32:00.708Z,99085.94
2019-03-04T21:35:26.501Z,99086.21
2019-03-04T21:37:56.341Z,99083.70
2019-03-04T21:40:55.314Z,99067.00
2019-03-04T21:43:38.177Z,99060.52
2019-03-04T21:46:38.478Z,99069.64
2019-03-04T21:49:10.293Z,99067.61
2019-03-04T21:52:32.296Z,99067.12
2019-03-04T21:55:03.254Z,99065.15
2019-03-04T21:57:48.405Z,99056.44
2019-03-04T22:00:25.857Z,99058.54
2019-03-04T22:03:18.944Z,99060.98
2019-03-04T22:05:50.488Z,99060.66
2019-03-04T22:08:19.657Z,99062.16
2019-03-04T22:10:49.092Z,99060.45
2019-03-04T22:13:19.098Z,99056.91
2019-03-04T22:15:48.689Z,99060.77
2019-03-04T22:18:18.237Z,99066.76
2019-03-04T22:20:47.802Z,99064.53
2019-03-04T22:23:17.450Z,99063.67
2019-03-04T22:25:47.090Z,99070.80
2019-03-04T22:28:16.607Z,99070.16
2019-03-04T22:30:46.109Z,99065.58
2019-03-04T22:33:15.892Z,99068.05
2019-03-04T22:35:45.598Z,99064.05
2019-03-04T22:38:15.295Z,99066.19
2019-03-04T22:40:45.020Z,99066.32
2019-03-04T22:43:14.404Z,99067.19
2019-03-04T22:45:43.818Z,99066.86
2019-03-04T22:48:13.349Z,99073.66
2019-03-04T22:50:42.831Z,99073.06
2019-03-04T22:53:12.262Z,99069.47
2019-03-04T22:55:41.695Z,99069.40
2019-03-04T22:58:11.263Z,99066.27
2019-03-04T23:01:41.985Z,99073.11
2019-03-04T23:04:31.794Z,99068.86
2019-03-04T23:07:16.617Z,99074.48
2019-03-04T23:10:23.128Z,99074.81
2019-03-04T23:13:33.389Z,99070.72
2019-03-04T23:16:03.985Z,99078.61
2019-03-04T23:18:33.469Z,99072.49
2019-03-04T23:21:03.075Z,99072.84
2019-03-04T23:23:32.474Z,99076.67
2019-03-04T23:26:01.955Z,99072.11
2019-03-04T23:28:32.166Z,99071.98
2019-03-04T23:31:01.555Z,99080.38
2019-03-04T23:33:30.957Z,99076.52
2019-03-04T23:36:00.484Z,99084.23
2019-03-04T23:38:30.456Z,99074.92
2019-03-04T23:40:59.900Z,99079.18
2019-03-04T23:43:29.688Z,99086.12
2019-03-04T23:45:59.190Z,99085.22
2019-03-04T23:48:28.598Z,99088.99
2019-03-04T23:50:58.164Z,99093.71
2019-03-04T23:53:27.761Z,99099.94
2019-03-04T23:55:57.190Z,99099.94
2019-03-04T23:58:27.771Z,99102.55
